Udall, Kansas
Current Conditions -  °F | °C
As of 11:54 PM on Sunday 23 Nov 2014 (Local Time) from KWLD Reporting Station
Clear Clear  
Wind Chill: 32°   Ceiling: Unl
Heat Index: 39°   Visibility: 10mi
Dew Point: 34°   Wind: 10mph
Humidity: 82%   Direction: 280°W
Pressure: 29.7"   Gusts: NA
Location:  37.39°N, 97.11°W
Report Text: KWLD 240554Z AUTO 28009KT 10SM CLR 04/01 A2970 RMK AO2 SLP056 60003 T00390011 10061 20039 401560039 53018
Loading
Personal Weather Stations






























Interactive Weather Map New forecast layout! Learn more

10-Day Weather Forecast

Advertisements
Track Severe Weather on mobile